createdAt,value
2019-06-27T00:00:41.501Z,11.10
2019-06-27T00:03:13.870Z,12.00
2019-06-27T00:05:46.590Z,9.97
2019-06-27T00:08:19.398Z,8.47
2019-06-27T00:10:52.179Z,12.03
2019-06-27T00:13:25.330Z,11.03
2019-06-27T00:15:57.777Z,11.40
2019-06-27T00:18:30.586Z,10.03
2019-06-27T00:21:05.165Z,13.53
2019-06-27T00:23:38.668Z,10.07
2019-06-27T00:26:11.033Z,12.87
2019-06-27T00:28:43.742Z,12.03
2019-06-27T00:31:17.281Z,10.87
2019-06-27T00:33:49.768Z,11.27
2019-06-27T00:36:21.530Z,10.30
2019-06-27T00:38:55.606Z,11.17
2019-06-27T00:41:27.157Z,10.37
2019-06-27T00:44:01.223Z,13.87
2019-06-27T00:46:34.773Z,11.90
2019-06-27T00:49:08.754Z,11.73
2019-06-27T00:51:40.317Z,10.93
2019-06-27T00:54:12.651Z,14.50
2019-06-27T00:56:46.222Z,10.67
2019-06-27T00:59:18.977Z,13.47
2019-06-27T01:01:51.726Z,12.30
2019-06-27T01:04:23.602Z,12.33
2019-06-27T01:06:55.246Z,12.73
2019-06-27T01:09:26.996Z,21.43
2019-06-27T01:11:59.809Z,13.37
2019-06-27T01:14:31.365Z,15.27
2019-06-27T01:17:03.122Z,16.67
2019-06-27T01:19:35.938Z,14.00
2019-06-27T01:22:09.418Z,11.43
2019-06-27T01:24:41.336Z,14.17
2019-06-27T01:27:28.851Z,9.30
2019-06-27T01:29:46.946Z,11.43
2019-06-27T01:32:19.637Z,9.73
2019-06-27T01:34:51.517Z,14.30
2019-06-27T01:37:24.359Z,12.60
2019-06-27T01:39:56.301Z,18.80
2019-06-27T01:42:30.221Z,14.57
2019-06-27T01:45:03.397Z,15.67
2019-06-27T01:47:35.146Z,10.90
2019-06-27T01:50:08.158Z,12.50
2019-06-27T01:52:40.804Z,12.57
2019-06-27T01:55:13.526Z,12.70
2019-06-27T01:57:46.981Z,12.50
2019-06-27T02:00:19.361Z,13.63
2019-06-27T02:02:51.274Z,13.00
2019-06-27T02:05:22.613Z,12.17
2019-06-27T02:07:54.516Z,15.80
2019-06-27T02:10:27.379Z,13.10
2019-06-27T02:13:00.210Z,13.60
2019-06-27T02:15:32.050Z,13.17
2019-06-27T02:18:03.726Z,14.20
2019-06-27T02:20:35.297Z,17.63
2019-06-27T02:23:06.237Z,19.63
2019-06-27T02:25:37.953Z,20.23
2019-06-27T02:28:11.277Z,22.20
2019-06-27T02:30:44.946Z,23.67
2019-06-27T02:33:16.826Z,24.17
2019-06-27T02:35:51.402Z,23.43
2019-06-27T02:38:24.621Z,26.57
2019-06-27T02:40:59.135Z,23.40
2019-06-27T02:43:31.190Z,24.93
2019-06-27T02:46:04.299Z,20.47
2019-06-27T02:48:36.175Z,30.57
2019-06-27T02:51:07.514Z,27.43
2019-06-27T02:53:40.093Z,20.70
2019-06-27T02:56:11.474Z,19.30
2019-06-27T02:58:43.853Z,18.90
2019-06-27T03:01:15.611Z,19.20
2019-06-27T03:03:48.423Z,20.07
2019-06-27T03:06:20.285Z,22.50
2019-06-27T03:08:52.267Z,24.17
2019-06-27T03:11:24.130Z,21.30
2019-06-27T03:13:56.631Z,20.83
2019-06-27T03:16:28.115Z,19.93
2019-06-27T03:19:00.493Z,22.30
2019-06-27T03:21:33.490Z,16.37
2019-06-27T03:24:04.941Z,18.50
2019-06-27T03:26:36.506Z,18.87
2019-06-27T03:29:09.508Z,19.40
2019-06-27T03:31:41.375Z,14.97
2019-06-27T03:34:14.917Z,15.53
2019-06-27T03:36:48.246Z,17.93
2019-06-27T03:39:21.036Z,20.17
2019-06-27T03:41:53.547Z,15.20
2019-06-27T03:44:25.941Z,17.67
2019-06-27T03:46:58.321Z,12.20
2019-06-27T03:49:30.990Z,13.50
2019-06-27T03:52:03.775Z,13.43
2019-06-27T03:54:35.603Z,13.60
2019-06-27T03:57:09.153Z,18.53
2019-06-27T03:59:40.920Z,14.33
2019-06-27T04:02:12.500Z,14.90
2019-06-27T04:04:44.138Z,15.50
2019-06-27T04:07:17.226Z,17.73
2019-06-27T04:09:50.035Z,19.53
2019-06-27T04:12:22.771Z,19.30
2019-06-27T04:14:55.663Z,21.40
2019-06-27T04:17:27.202Z,17.10
2019-06-27T04:20:01.711Z,17.23
2019-06-27T04:22:33.639Z,15.63
2019-06-27T04:25:07.416Z,15.67
2019-06-27T04:27:38.768Z,17.43
2019-06-27T04:30:10.442Z,18.30
2019-06-27T04:32:42.188Z,18.23
2019-06-27T04:35:15.155Z,19.93
2019-06-27T04:37:47.496Z,19.23
2019-06-27T04:40:19.032Z,17.37
2019-06-27T04:42:51.336Z,15.27
2019-06-27T04:45:25.782Z,17.47
2019-06-27T04:47:58.947Z,15.63
2019-06-27T04:50:31.454Z,17.13
2019-06-27T04:53:05.608Z,20.87
2019-06-27T04:55:37.990Z,20.23
2019-06-27T04:58:09.949Z,18.13
2019-06-27T05:00:42.754Z,19.83
2019-06-27T05:03:15.569Z,17.80
2019-06-27T05:05:48.189Z,20.57
2019-06-27T05:08:20.868Z,22.90
2019-06-27T05:10:53.326Z,19.87
2019-06-27T05:13:25.959Z,20.23
2019-06-27T05:15:58.494Z,15.23
2019-06-27T05:18:31.596Z,15.67
2019-06-27T05:21:05.361Z,14.20
2019-06-27T05:23:36.757Z,18.17
2019-06-27T05:26:09.474Z,21.07
2019-06-27T05:28:41.777Z,24.73
2019-06-27T05:31:14.271Z,21.87
2019-06-27T05:33:46.044Z,22.37
2019-06-27T05:36:18.377Z,21.17
2019-06-27T05:38:52.715Z,20.60
2019-06-27T05:41:24.549Z,20.50
2019-06-27T05:43:55.814Z,23.17
2019-06-27T05:46:28.926Z,23.10
2019-06-27T05:49:01.359Z,23.93
2019-06-27T05:51:34.035Z,25.20
2019-06-27T05:54:05.486Z,21.43
2019-06-27T05:56:37.332Z,24.90
2019-06-27T05:59:09.656Z,23.83
2019-06-27T06:01:42.554Z,25.67
2019-06-27T06:04:15.446Z,19.10
2019-06-27T06:06:47.209Z,21.57
2019-06-27T06:09:20.541Z,25.30
2019-06-27T06:11:53.187Z,20.67
2019-06-27T06:14:24.581Z,20.07
2019-06-27T06:16:56.470Z,20.93
2019-06-27T06:19:29.058Z,25.87
2019-06-27T06:22:01.515Z,26.13
2019-06-27T06:24:33.835Z,21.60
2019-06-27T06:27:06.554Z,21.00
2019-06-27T06:29:39.060Z,24.63
2019-06-27T06:32:12.698Z,20.20
2019-06-27T06:34:45.176Z,21.43
2019-06-27T06:37:15.427Z,18.60
2019-06-27T06:39:46.421Z,17.67
2019-06-27T06:42:20.533Z,16.70
2019-06-27T06:44:52.347Z,20.07
2019-06-27T06:47:25.398Z,21.07
2019-06-27T06:49:57.727Z,21.43
2019-06-27T06:52:30.654Z,15.53
2019-06-27T06:55:03.589Z,15.00
2019-06-27T06:57:36.893Z,16.30
2019-06-27T07:00:10.446Z,16.07
2019-06-27T07:02:43.454Z,15.47
2019-06-27T07:05:17.528Z,16.60
2019-06-27T07:07:49.404Z,17.97
2019-06-27T07:10:22.567Z,17.40
2019-06-27T07:12:55.643Z,14.70
2019-06-27T07:15:29.078Z,13.70
2019-06-27T07:18:01.689Z,16.00
2019-06-27T07:20:33.110Z,12.33
2019-06-27T07:23:07.253Z,17.50
2019-06-27T07:25:38.545Z,31.10
2019-06-27T07:28:13.215Z,17.33
2019-06-27T07:30:47.406Z,14.47
2019-06-27T07:33:19.349Z,15.50
2019-06-27T07:35:51.238Z,18.03
2019-06-27T07:38:24.004Z,16.40
2019-06-27T07:40:56.596Z,19.17
2019-06-27T07:43:28.095Z,21.73
2019-06-27T07:46:00.860Z,20.77
2019-06-27T07:48:33.898Z,18.60
2019-06-27T07:51:07.229Z,19.20
2019-06-27T07:53:39.007Z,16.53
2019-06-27T07:56:11.235Z,13.93
2019-06-27T07:58:44.090Z,16.47
2019-06-27T08:01:33.706Z,13.57
2019-06-27T08:03:51.157Z,12.80
2019-06-27T08:06:23.556Z,13.70
2019-06-27T08:08:56.377Z,16.73
2019-06-27T08:11:29.361Z,18.87
2019-06-27T08:14:10.865Z,14.80
2019-06-27T08:16:43.470Z,13.20
2019-06-27T08:19:18.710Z,12.67
2019-06-27T08:21:51.571Z,15.40
2019-06-27T08:24:24.129Z,11.80
2019-06-27T08:26:56.827Z,12.17
2019-06-27T08:29:28.765Z,17.33
2019-06-27T08:32:01.581Z,11.77
2019-06-27T08:34:33.136Z,11.23
2019-06-27T08:37:04.984Z,16.03
2019-06-27T08:39:37.871Z,14.30
2019-06-27T08:42:10.285Z,10.50
2019-06-27T08:44:43.156Z,8.43
2019-06-27T08:47:13.591Z,8.17
2019-06-27T08:49:47.482Z,12.57
2019-06-27T08:52:20.903Z,10.93
2019-06-27T08:54:52.211Z,13.23
2019-06-27T08:57:24.952Z,8.27
2019-06-27T08:59:59.430Z,13.40
2019-06-27T09:02:31.285Z,13.53
2019-06-27T09:05:06.288Z,14.43
2019-06-27T09:07:39.292Z,13.33
2019-06-27T09:10:11.538Z,12.93
2019-06-27T09:12:43.801Z,9.83
2019-06-27T09:15:16.574Z,18.33
2019-06-27T09:17:50.359Z,13.60
2019-06-27T09:20:22.105Z,10.23
2019-06-27T09:22:54.787Z,11.20
2019-06-27T09:25:27.590Z,9.43
2019-06-27T09:27:59.171Z,14.73
2019-06-27T09:30:34.449Z,11.10
2019-06-27T09:33:06.340Z,12.37
2019-06-27T09:35:38.309Z,9.63
2019-06-27T09:38:11.766Z,10.63
2019-06-27T09:40:44.674Z,9.10
2019-06-27T09:43:16.277Z,9.30
2019-06-27T09:45:49.401Z,13.93
2019-06-27T09:48:21.401Z,9.97
2019-06-27T09:50:53.297Z,11.20
2019-06-27T09:53:27.348Z,10.77
2019-06-27T09:55:59.836Z,10.87
2019-06-27T09:58:31.730Z,10.27
2019-06-27T10:01:05.995Z,12.23
2019-06-27T10:03:37.747Z,13.03
2019-06-27T10:06:10.552Z,9.40
2019-06-27T10:08:42.416Z,12.23
2019-06-27T10:11:14.414Z,12.60
2019-06-27T10:13:50.189Z,14.73
2019-06-27T10:16:23.023Z,8.77
2019-06-27T10:18:55.829Z,9.07
2019-06-27T10:21:28.635Z,16.93
2019-06-27T10:24:01.475Z,13.67
2019-06-27T10:26:33.454Z,8.40
2019-06-27T10:29:06.290Z,12.37
2019-06-27T10:31:39.183Z,8.60
2019-06-27T10:34:12.603Z,13.80
2019-06-27T10:36:46.543Z,10.67
2019-06-27T10:39:18.421Z,9.63
2019-06-27T10:41:51.234Z,7.47
2019-06-27T10:44:24.014Z,10.43
2019-06-27T10:46:55.425Z,8.77
2019-06-27T10:49:27.339Z,10.50
2019-06-27T10:52:00.981Z,11.93
2019-06-27T10:54:33.788Z,11.53
2019-06-27T10:57:06.621Z,11.50
2019-06-27T10:59:38.601Z,13.00
2019-06-27T11:02:11.513Z,13.60
2019-06-27T11:04:43.691Z,14.30
2019-06-27T11:07:15.581Z,9.67
2019-06-27T11:09:50.179Z,16.13
2019-06-27T11:12:21.982Z,13.23
2019-06-27T11:14:59.139Z,10.80
2019-06-27T11:17:28.147Z,13.97
2019-06-27T11:20:02.720Z,12.60
2019-06-27T11:22:37.145Z,10.60
2019-06-27T11:25:11.866Z,10.47
2019-06-27T11:27:44.795Z,11.17
2019-06-27T11:30:18.102Z,9.33
2019-06-27T11:32:52.411Z,10.63
2019-06-27T11:35:25.204Z,11.53
2019-06-27T11:37:58.005Z,14.40
2019-06-27T11:40:29.382Z,8.60
2019-06-27T11:43:01.389Z,10.23
2019-06-27T11:45:34.365Z,16.17
2019-06-27T11:48:06.224Z,12.57
2019-06-27T11:50:39.015Z,11.53
2019-06-27T11:53:12.549Z,12.43
2019-06-27T11:55:45.269Z,10.33
2019-06-27T11:58:18.181Z,8.07
2019-06-27T12:00:51.210Z,9.23
2019-06-27T12:03:24.544Z,8.80
2019-06-27T12:05:58.606Z,10.90
2019-06-27T12:08:32.252Z,6.97
2019-06-27T12:11:05.136Z,9.57
2019-06-27T12:13:38.449Z,10.57
2019-06-27T12:16:12.508Z,7.77
2019-06-27T12:18:44.413Z,10.57
2019-06-27T12:21:16.278Z,8.17
2019-06-27T12:23:49.069Z,10.30
2019-06-27T12:26:22.100Z,7.37
2019-06-27T12:28:54.890Z,7.80
2019-06-27T12:31:27.297Z,6.83
2019-06-27T12:34:06.778Z,7.80
2019-06-27T12:36:34.738Z,7.60
2019-06-27T12:39:08.352Z,9.77
2019-06-27T12:41:40.412Z,8.43
2019-06-27T12:44:13.234Z,7.40
2019-06-27T12:46:45.736Z,9.60
2019-06-27T12:49:18.615Z,5.90
2019-06-27T12:51:51.039Z,11.17
2019-06-27T12:54:25.154Z,9.53
2019-06-27T12:56:57.157Z,11.90
2019-06-27T12:59:29.013Z,9.97
2019-06-27T13:02:03.662Z,6.97
2019-06-27T13:04:35.580Z,6.90
2019-06-27T13:07:07.888Z,9.80
2019-06-27T13:09:39.317Z,9.87
2019-06-27T13:12:13.837Z,11.60
2019-06-27T13:14:46.721Z,8.50
2019-06-27T13:17:19.530Z,7.57
2019-06-27T13:19:51.530Z,11.47
2019-06-27T13:22:24.285Z,8.37
2019-06-27T13:24:58.961Z,7.67
2019-06-27T13:27:33.165Z,8.80
2019-06-27T13:30:11.267Z,6.97
2019-06-27T13:32:44.088Z,7.43
2019-06-27T13:35:16.919Z,8.07
2019-06-27T13:37:48.890Z,7.20
2019-06-27T13:40:21.194Z,6.47
2019-06-27T13:42:55.681Z,10.00
2019-06-27T13:45:28.657Z,8.37
2019-06-27T13:48:00.527Z,7.97
2019-06-27T13:50:33.347Z,8.93
2019-06-27T13:53:05.205Z,6.37
2019-06-27T13:55:38.195Z,8.47
2019-06-27T13:58:11.113Z,11.00
2019-06-27T14:00:45.366Z,7.20
2019-06-27T14:03:18.234Z,8.40
2019-06-27T14:05:50.957Z,5.57
2019-06-27T14:08:26.304Z,7.90
2019-06-27T14:10:59.291Z,10.93
2019-06-27T14:13:32.187Z,10.47
2019-06-27T14:16:05.996Z,7.33
2019-06-27T14:18:37.761Z,10.17
2019-06-27T14:21:10.300Z,11.13
2019-06-27T14:23:42.830Z,7.00
2019-06-27T14:26:15.257Z,8.60
2019-06-27T14:28:47.720Z,6.53
2019-06-27T14:31:20.261Z,8.07
2019-06-27T14:33:53.282Z,7.80
2019-06-27T14:36:25.045Z,8.43
2019-06-27T14:38:56.698Z,6.20
2019-06-27T14:41:29.407Z,7.33
2019-06-27T14:44:02.616Z,6.27
2019-06-27T14:46:37.397Z,8.27
2019-06-27T14:49:08.879Z,9.23
2019-06-27T14:51:40.850Z,10.47
2019-06-27T14:54:14.446Z,7.93
2019-06-27T14:56:46.342Z,5.63
2019-06-27T14:59:19.173Z,7.03
2019-06-27T15:01:51.951Z,5.33
2019-06-27T15:04:26.509Z,7.07
2019-06-27T15:07:01.020Z,9.07
2019-06-27T15:09:35.625Z,8.60
2019-06-27T15:12:07.610Z,6.73
2019-06-27T15:14:39.495Z,7.23
2019-06-27T15:17:12.347Z,6.73
2019-06-27T15:19:44.748Z,6.53
2019-06-27T15:22:16.624Z,10.73
2019-06-27T15:24:47.949Z,7.13
2019-06-27T15:27:19.510Z,5.60
2019-06-27T15:29:51.287Z,11.23
2019-06-27T15:32:24.108Z,5.57
2019-06-27T15:34:57.114Z,9.00
2019-06-27T15:37:30.009Z,6.57
2019-06-27T15:40:03.670Z,5.53
2019-06-27T15:42:36.601Z,5.93
2019-06-27T15:45:11.278Z,5.43
2019-06-27T15:47:43.116Z,6.57
2019-06-27T15:50:16.329Z,8.07
2019-06-27T15:52:49.115Z,10.07
2019-06-27T15:55:21.852Z,5.77
2019-06-27T15:57:54.694Z,8.77
2019-06-27T16:00:27.812Z,9.97
2019-06-27T16:02:59.290Z,7.07
2019-06-27T16:05:32.080Z,5.10
2019-06-27T16:08:04.885Z,11.60
2019-06-27T16:10:37.698Z,7.83
2019-06-27T16:13:09.567Z,4.33
2019-06-27T16:15:42.346Z,6.20
2019-06-27T16:18:15.148Z,5.87
2019-06-27T16:20:46.708Z,8.93
2019-06-27T16:23:19.400Z,7.90
2019-06-27T16:25:54.022Z,5.80
2019-06-27T16:28:27.312Z,7.43
2019-06-27T16:31:00.129Z,5.40
2019-06-27T16:33:32.327Z,8.20
2019-06-27T16:36:04.189Z,5.20
2019-06-27T16:38:37.066Z,6.73
2019-06-27T16:41:11.628Z,7.17
2019-06-27T16:43:43.540Z,9.60
2019-06-27T16:46:15.933Z,8.30
2019-06-27T16:48:48.844Z,5.40
2019-06-27T16:51:22.521Z,8.17
2019-06-27T16:53:54.373Z,7.63
2019-06-27T16:56:29.985Z,6.13
2019-06-27T16:59:01.825Z,6.40
2019-06-27T17:01:33.755Z,6.50
2019-06-27T17:04:06.422Z,8.30
2019-06-27T17:06:42.520Z,4.87
2019-06-27T17:09:14.509Z,6.23
2019-06-27T17:11:47.807Z,6.60
2019-06-27T17:14:20.610Z,6.00
2019-06-27T17:16:53.427Z,6.23
2019-06-27T17:19:25.400Z,8.63
2019-06-27T17:21:58.195Z,9.20
2019-06-27T17:24:32.443Z,5.50
2019-06-27T17:27:04.497Z,7.50
2019-06-27T17:29:36.400Z,4.23
2019-06-27T17:32:10.526Z,6.27
2019-06-27T17:34:42.433Z,7.23
2019-06-27T17:37:18.434Z,6.57
2019-06-27T17:39:49.713Z,6.50
2019-06-27T17:42:22.551Z,4.60
2019-06-27T17:44:54.391Z,7.27
2019-06-27T17:47:36.944Z,6.77
2019-06-27T17:50:11.525Z,9.00
2019-06-27T17:52:46.194Z,6.23
2019-06-27T17:55:17.749Z,9.87
2019-06-27T17:57:50.463Z,4.93
2019-06-27T18:00:23.682Z,7.67
2019-06-27T18:02:56.607Z,7.20
2019-06-27T18:05:29.446Z,6.40
2019-06-27T18:08:01.368Z,5.53
2019-06-27T18:10:34.285Z,4.20
2019-06-27T18:13:06.145Z,6.53
2019-06-27T18:15:37.825Z,5.03
2019-06-27T18:18:09.268Z,7.27
2019-06-27T18:20:42.584Z,6.00
2019-06-27T18:23:14.877Z,5.83
2019-06-27T18:25:48.529Z,5.60
2019-06-27T18:28:20.095Z,4.17
2019-06-27T18:30:52.845Z,4.93
2019-06-27T18:33:24.768Z,6.33
2019-06-27T18:35:57.278Z,4.50
2019-06-27T18:38:29.638Z,5.73
2019-06-27T18:41:04.559Z,6.90
2019-06-27T18:43:36.406Z,5.70
2019-06-27T18:46:08.930Z,8.23
2019-06-27T18:48:40.380Z,5.03
2019-06-27T18:51:13.198Z,8.10
2019-06-27T18:53:45.760Z,5.73
2019-06-27T18:56:17.324Z,6.03
2019-06-27T18:58:49.075Z,6.40
2019-06-27T19:01:21.872Z,8.90
2019-06-27T19:03:54.044Z,7.17
2019-06-27T19:06:26.860Z,7.40
2019-06-27T19:08:59.782Z,7.53
2019-06-27T19:11:33.798Z,9.47
2019-06-27T19:14:06.458Z,10.03
2019-06-27T19:16:38.837Z,19.30
2019-06-27T19:19:11.449Z,10.67
2019-06-27T19:21:54.875Z,9.40
2019-06-27T19:24:28.389Z,5.33
2019-06-27T19:27:00.829Z,4.30
2019-06-27T19:29:32.289Z,4.93
2019-06-27T19:32:04.040Z,7.40
2019-06-27T19:34:38.578Z,8.00
2019-06-27T19:37:11.237Z,7.60
2019-06-27T19:39:43.400Z,4.23
2019-06-27T19:42:16.035Z,9.20
2019-06-27T19:44:50.497Z,6.20
2019-06-27T19:47:22.974Z,6.57
2019-06-27T19:49:54.834Z,9.17
2019-06-27T19:52:26.950Z,5.43
2019-06-27T19:55:04.624Z,7.80
2019-06-27T19:57:37.303Z,6.13
2019-06-27T20:00:11.680Z,4.97
2019-06-27T20:02:45.512Z,4.37
2019-06-27T20:05:16.185Z,5.07
2019-06-27T20:08:19.236Z,6.10
2019-06-27T20:10:43.609Z,6.03
2019-06-27T20:13:15.930Z,8.10
2019-06-27T20:15:51.386Z,6.53
2019-06-27T20:18:23.728Z,6.53
2019-06-27T20:20:55.185Z,7.87
2019-06-27T20:23:27.707Z,5.30
2019-06-27T20:25:59.119Z,5.63
2019-06-27T20:28:31.512Z,5.57
2019-06-27T20:31:05.588Z,7.13
2019-06-27T20:33:38.811Z,4.83
2019-06-27T20:36:10.364Z,14.60
2019-06-27T20:38:42.119Z,5.33
2019-06-27T20:41:14.908Z,9.60
2019-06-27T20:43:46.782Z,5.80
2019-06-27T20:46:19.590Z,6.27
2019-06-27T20:48:53.878Z,3.83
2019-06-27T20:51:25.035Z,4.13
2019-06-27T20:53:57.842Z,4.17
2019-06-27T20:56:30.572Z,5.03
2019-06-27T20:59:03.135Z,5.43
2019-06-27T21:01:35.812Z,4.57
2019-06-27T21:04:08.655Z,5.03
2019-06-27T21:06:41.160Z,11.60
2019-06-27T21:09:15.521Z,6.33
2019-06-27T21:11:47.095Z,7.77
2019-06-27T21:14:20.172Z,7.77
2019-06-27T21:16:53.740Z,7.67
2019-06-27T21:19:25.081Z,11.03
2019-06-27T21:21:58.922Z,12.93
2019-06-27T21:24:30.496Z,7.57
2019-06-27T21:27:01.115Z,9.10
2019-06-27T21:29:33.772Z,11.50
2019-06-27T21:32:06.186Z,10.70
2019-06-27T21:34:37.361Z,12.17
2019-06-27T21:37:10.035Z,7.43
2019-06-27T21:39:42.546Z,9.77
2019-06-27T21:42:15.193Z,8.83
2019-06-27T21:44:49.612Z,9.23
2019-06-27T21:47:22.420Z,11.40
2019-06-27T21:49:58.225Z,9.13
2019-06-27T21:52:29.806Z,10.23
2019-06-27T21:55:01.267Z,11.77
2019-06-27T21:57:33.951Z,7.87
2019-06-27T22:00:08.227Z,9.63
2019-06-27T22:02:40.923Z,10.20
2019-06-27T22:05:13.792Z,13.90
2019-06-27T22:07:46.249Z,10.00
2019-06-27T22:10:19.417Z,17.60
2019-06-27T22:12:53.645Z,11.40
2019-06-27T22:15:25.381Z,16.50
2019-06-27T22:17:58.099Z,8.70
2019-06-27T22:20:30.609Z,10.10
2019-06-27T22:23:03.198Z,9.30
2019-06-27T22:25:40.379Z,10.80
2019-06-27T22:28:09.658Z,11.93
2019-06-27T22:30:41.207Z,8.73
2019-06-27T22:33:12.949Z,10.23
2019-06-27T22:35:44.926Z,9.97
2019-06-27T22:38:34.797Z,12.40
2019-06-27T22:41:23.609Z,8.30
2019-06-27T22:44:12.048Z,10.00
2019-06-27T22:47:02.624Z,9.97
2019-06-27T22:49:35.693Z,10.80
2019-06-27T22:52:25.074Z,11.30
2019-06-27T22:54:58.240Z,11.10
2019-06-27T22:57:30.751Z,9.57
2019-06-27T23:00:02.203Z,9.47
2019-06-27T23:02:34.891Z,11.43
2019-06-27T23:05:08.084Z,10.30
2019-06-27T23:07:40.913Z,8.63
2019-06-27T23:10:14.449Z,11.67
2019-06-27T23:12:46.033Z,9.43
2019-06-27T23:15:17.466Z,14.03
2019-06-27T23:17:50.193Z,11.00
2019-06-27T23:20:24.244Z,11.73
2019-06-27T23:22:58.533Z,7.57
2019-06-27T23:25:32.012Z,12.47
2019-06-27T23:28:06.572Z,12.00
2019-06-27T23:30:38.960Z,7.00
2019-06-27T23:33:11.735Z,9.47
2019-06-27T23:35:45.083Z,11.57
2019-06-27T23:38:18.272Z,11.73
2019-06-27T23:40:50.098Z,9.67
2019-06-27T23:43:22.011Z,11.77
2019-06-27T23:45:53.572Z,11.53
2019-06-27T23:48:25.891Z,9.43
2019-06-27T23:50:57.320Z,9.40
2019-06-27T23:53:28.775Z,11.80
2019-06-27T23:56:00.514Z,8.53
2019-06-27T23:58:33.046Z,16.23
